createdAt,value
2018-10-11T00:00:08.426Z,12.59
2018-10-11T00:01:08.402Z,12.67
2018-10-11T00:02:08.375Z,12.56
2018-10-11T00:03:08.351Z,12.59
2018-10-11T00:04:08.326Z,12.67
2018-10-11T00:05:08.300Z,12.65
2018-10-11T00:06:08.275Z,12.57
2018-10-11T00:07:08.250Z,12.59
2018-10-11T00:08:08.223Z,12.54
2018-10-11T00:09:08.202Z,12.54
2018-10-11T00:10:08.172Z,12.53
2018-10-11T00:11:08.147Z,12.59
2018-10-11T00:12:08.123Z,12.52
2018-10-11T00:13:08.098Z,12.42
2018-10-11T00:14:08.072Z,12.45
2018-10-11T00:15:08.048Z,12.46
2018-10-11T00:16:08.022Z,12.50
2018-10-11T00:17:07.999Z,12.39
2018-10-11T00:18:07.971Z,12.53
2018-10-11T00:19:07.947Z,12.53
2018-10-11T00:20:07.927Z,12.54
2018-10-11T00:21:07.900Z,12.56
2018-10-11T00:22:07.872Z,12.72
2018-10-11T00:23:07.846Z,12.70
2018-10-11T00:24:07.822Z,12.68
2018-10-11T00:25:07.799Z,12.68
2018-10-11T00:26:07.771Z,12.54
2018-10-11T00:27:07.745Z,12.67
2018-10-11T00:28:07.719Z,12.64
2018-10-11T00:29:07.694Z,12.57
2018-10-11T00:30:07.667Z,12.54
2018-10-11T00:31:07.648Z,12.54
2018-10-11T00:32:07.618Z,12.47
2018-10-11T00:33:07.592Z,12.50
2018-10-11T00:34:07.567Z,12.38
2018-10-11T00:35:07.542Z,12.47
2018-10-11T00:36:07.515Z,12.47
2018-10-11T00:37:07.492Z,12.45
2018-10-11T00:38:07.468Z,12.46
2018-10-11T00:39:07.441Z,12.47
2018-10-11T00:40:07.416Z,12.38
2018-10-11T00:41:07.389Z,12.32
2018-10-11T00:42:07.364Z,12.29
2018-10-11T00:43:07.340Z,12.24
2018-10-11T00:44:07.315Z,12.13
2018-10-11T00:45:07.288Z,12.16
2018-10-11T00:46:07.264Z,12.24
2018-10-11T00:47:07.242Z,12.23
2018-10-11T00:48:07.213Z,12.17
2018-10-11T00:49:07.187Z,12.13
2018-10-11T00:50:07.162Z,12.01
2018-10-11T00:51:07.136Z,11.99
2018-10-11T00:52:07.111Z,11.88
2018-10-11T00:53:07.107Z,11.85
2018-10-11T00:54:07.060Z,11.72
2018-10-11T00:55:07.037Z,11.60
2018-10-11T00:56:07.010Z,11.67
2018-10-11T00:57:06.985Z,11.65
2018-10-11T00:58:06.958Z,11.54
2018-10-11T00:59:06.933Z,11.54
2018-10-11T01:00:06.908Z,11.47
2018-10-11T01:01:06.882Z,11.39
2018-10-11T01:02:06.857Z,11.35
2018-10-11T01:03:06.831Z,11.47
2018-10-11T01:04:06.806Z,11.40
2018-10-11T01:05:06.781Z,11.37
2018-10-11T01:06:06.755Z,11.40
2018-10-11T01:07:06.728Z,11.35
2018-10-11T01:08:06.703Z,11.40
2018-10-11T01:09:06.715Z,11.35
2018-10-11T01:10:06.665Z,11.28
2018-10-11T01:11:06.627Z,11.29
2018-10-11T01:12:06.601Z,11.37
2018-10-11T01:13:06.576Z,11.42
2018-10-11T01:14:06.550Z,11.43
2018-10-11T01:15:06.523Z,11.40
2018-10-11T01:16:06.499Z,11.25
2018-10-11T01:17:06.482Z,11.21
2018-10-11T01:18:06.445Z,11.27
2018-10-11T01:19:06.422Z,11.22
2018-10-11T01:20:06.396Z,11.11
2018-10-11T01:21:06.374Z,11.07
2018-10-11T01:22:06.344Z,11.06
2018-10-11T01:23:06.319Z,11.11
2018-10-11T01:24:06.294Z,11.11
2018-10-11T01:25:06.268Z,11.17
2018-10-11T01:26:06.241Z,11.11
2018-10-11T01:27:06.216Z,11.00
2018-10-11T01:28:06.190Z,11.04
2018-10-11T01:29:06.164Z,11.11
2018-10-11T01:30:06.185Z,11.02
2018-10-11T01:31:06.114Z,11.11
2018-10-11T01:32:06.091Z,11.17
2018-10-11T01:33:06.061Z,11.00
2018-10-11T01:34:06.033Z,11.14
2018-10-11T01:35:06.011Z,11.03
2018-10-11T01:36:05.982Z,10.96
2018-10-11T01:37:05.957Z,10.97
2018-10-11T01:38:05.934Z,11.15
2018-10-11T01:39:05.905Z,11.10
2018-10-11T01:40:05.881Z,11.24
2018-10-11T01:41:05.853Z,11.37
2018-10-11T01:42:05.831Z,11.25
2018-10-11T01:43:05.802Z,11.21
2018-10-11T01:44:05.776Z,11.14
2018-10-11T01:45:05.754Z,11.18
2018-10-11T01:46:05.723Z,11.29
2018-10-11T01:47:05.698Z,11.27
2018-10-11T01:48:05.673Z,11.24
2018-10-11T01:49:05.645Z,11.28
2018-10-11T01:50:05.619Z,11.17
2018-10-11T01:51:05.594Z,11.21
2018-10-11T01:52:05.569Z,11.14
2018-10-11T01:53:05.543Z,11.15
2018-10-11T01:54:05.516Z,11.17
2018-10-11T01:55:05.490Z,11.09
2018-10-11T01:56:05.465Z,11.07
2018-10-11T01:57:05.441Z,11.25
2018-10-11T01:58:05.410Z,11.33
2018-10-11T01:59:05.385Z,11.37
2018-10-11T02:00:05.360Z,11.39
2018-10-11T02:01:05.334Z,11.40
2018-10-11T02:02:05.307Z,11.43
2018-10-11T02:03:05.281Z,11.52
2018-10-11T02:04:05.256Z,11.60
2018-10-11T02:05:05.233Z,11.76
2018-10-11T02:06:05.203Z,11.72
2018-10-11T02:07:05.179Z,11.61
2018-10-11T02:08:05.151Z,11.58
2018-10-11T02:09:05.126Z,11.70
2018-10-11T02:10:05.100Z,11.64
2018-10-11T02:11:05.072Z,11.72
2018-10-11T02:12:05.054Z,11.70
2018-10-11T02:13:05.022Z,11.64
2018-10-11T02:14:04.997Z,11.72
2018-10-11T02:15:04.969Z,11.65
2018-10-11T02:16:04.942Z,11.55
2018-10-11T02:17:04.918Z,11.61
2018-10-11T02:18:04.890Z,11.64
2018-10-11T02:19:04.866Z,11.55
2018-10-11T02:20:04.838Z,11.42
2018-10-11T02:21:04.813Z,11.49
2018-10-11T02:22:04.786Z,11.27
2018-10-11T02:23:04.761Z,11.24
2018-10-11T02:24:04.734Z,11.21
2018-10-11T02:25:04.708Z,11.21
2018-10-11T02:26:04.684Z,11.17
2018-10-11T02:27:04.657Z,11.14
2018-10-11T02:28:04.630Z,11.15
2018-10-11T02:29:04.607Z,11.21
2018-10-11T02:30:04.580Z,11.10
2018-10-11T02:31:04.556Z,11.10
2018-10-11T02:32:04.619Z,11.11
2018-10-11T02:33:04.501Z,11.07
2018-10-11T02:34:04.476Z,11.09
2018-10-11T02:35:04.448Z,10.97
2018-10-11T02:36:04.426Z,10.84
2018-10-11T02:37:04.398Z,10.84
2018-10-11T02:38:04.370Z,10.86
2018-10-11T02:39:04.345Z,10.88
2018-10-11T02:40:04.319Z,10.81
2018-10-11T02:41:04.293Z,10.71
2018-10-11T02:42:04.266Z,10.70
2018-10-11T02:43:04.239Z,10.76
2018-10-11T02:44:04.218Z,10.59
2018-10-11T02:45:04.188Z,10.67
2018-10-11T02:46:04.164Z,10.60
2018-10-11T02:47:04.137Z,10.47
2018-10-11T02:48:04.109Z,10.48
2018-10-11T02:49:04.085Z,10.45
2018-10-11T02:50:04.057Z,10.47
2018-10-11T02:51:04.033Z,10.52
2018-10-11T02:52:04.004Z,10.52
2018-10-11T02:53:03.978Z,10.63
2018-10-11T02:54:03.956Z,10.61
2018-10-11T02:55:03.926Z,10.73
2018-10-11T02:56:03.898Z,10.74
2018-10-11T02:57:03.875Z,10.76
2018-10-11T02:58:03.845Z,10.85
2018-10-11T02:59:03.819Z,10.86
2018-10-11T03:00:03.795Z,10.88
2018-10-11T03:01:03.767Z,10.78
2018-10-11T03:02:03.741Z,10.81
2018-10-11T03:03:03.719Z,10.82
2018-10-11T03:04:03.689Z,10.86
2018-10-11T03:05:03.661Z,10.84
2018-10-11T03:06:03.636Z,10.88
2018-10-11T03:07:03.610Z,10.88
2018-10-11T03:08:03.584Z,10.91
2018-10-11T03:09:03.557Z,10.78
2018-10-11T03:10:03.530Z,10.81
2018-10-11T03:11:03.506Z,10.61
2018-10-11T03:12:03.477Z,10.52
2018-10-11T03:13:03.451Z,10.55
2018-10-11T03:14:03.425Z,10.56
2018-10-11T03:15:03.399Z,10.66
2018-10-11T03:16:03.372Z,10.53
2018-10-11T03:17:03.347Z,10.44
2018-10-11T03:18:03.318Z,10.60
2018-10-11T03:19:03.293Z,10.56
2018-10-11T03:20:03.266Z,10.44
2018-10-11T03:21:03.240Z,10.42
2018-10-11T03:22:03.212Z,10.33
2018-10-11T03:23:03.187Z,10.33
2018-10-11T03:24:03.160Z,10.27
2018-10-11T03:25:03.135Z,10.22
2018-10-11T03:26:03.107Z,10.18
2018-10-11T03:27:03.082Z,10.20
2018-10-11T03:28:03.054Z,10.14
2018-10-11T03:29:03.028Z,10.17
2018-10-11T03:30:03.002Z,10.07
2018-10-11T03:31:02.975Z,10.07
2018-10-11T03:32:02.948Z,9.97
2018-10-11T03:33:02.921Z,9.84
2018-10-11T03:34:02.898Z,9.79
2018-10-11T03:35:02.869Z,9.78
2018-10-11T03:36:02.841Z,9.75
2018-10-11T03:37:02.816Z,9.66
2018-10-11T03:38:02.788Z,9.68
2018-10-11T03:39:02.766Z,9.57
2018-10-11T03:40:02.736Z,9.58
2018-10-11T03:41:02.708Z,9.60
2018-10-11T03:42:02.682Z,9.56
2018-10-11T03:43:02.656Z,9.56
2018-10-11T03:44:02.629Z,9.50
2018-10-11T03:45:02.606Z,9.57
2018-10-11T03:46:02.575Z,9.60
2018-10-11T03:47:02.550Z,9.51
2018-10-11T03:48:02.523Z,9.46
2018-10-11T03:49:02.497Z,9.57
2018-10-11T03:50:02.468Z,9.58
2018-10-11T03:51:02.444Z,9.64
2018-10-11T03:52:02.417Z,9.57
2018-10-11T03:53:02.390Z,9.66
2018-10-11T03:54:02.365Z,9.74
2018-10-11T03:55:02.337Z,9.68
2018-10-11T03:56:02.309Z,9.53
2018-10-11T03:57:02.280Z,9.57
2018-10-11T03:58:02.257Z,9.50
2018-10-11T03:59:02.233Z,9.46
2018-10-11T04:00:02.201Z,9.58
2018-10-11T04:01:02.175Z,9.54
2018-10-11T04:02:02.147Z,9.56
2018-10-11T04:03:02.120Z,9.54
2018-10-11T04:04:02.097Z,9.61
2018-10-11T04:05:02.068Z,9.51
2018-10-11T04:06:02.040Z,9.57
2018-10-11T04:07:02.013Z,9.50
2018-10-11T04:08:01.987Z,9.42
2018-10-11T04:09:01.960Z,9.26
2018-10-11T04:10:01.934Z,9.15
2018-10-11T04:11:01.905Z,9.15
2018-10-11T04:12:01.882Z,9.11
2018-10-11T04:13:01.861Z,9.10
2018-10-11T04:14:01.826Z,8.98
2018-10-11T04:15:01.797Z,9.01
2018-10-11T04:16:01.775Z,9.01
2018-10-11T04:17:01.744Z,8.92
2018-10-11T04:18:01.717Z,8.98
2018-10-11T04:19:01.689Z,8.92
2018-10-11T04:20:01.663Z,8.96
2018-10-11T04:21:01.635Z,8.95
2018-10-11T04:22:01.607Z,8.94
2018-10-11T04:23:01.581Z,8.84
2018-10-11T04:24:01.563Z,8.92
2018-10-11T04:25:03.937Z,8.81
2018-10-11T04:26:01.500Z,8.86
2018-10-11T04:27:01.473Z,8.73
2018-10-11T04:28:01.445Z,8.76
2018-10-11T04:29:01.419Z,8.63
2018-10-11T04:30:01.426Z,8.58
2018-10-11T04:31:01.367Z,8.53
2018-10-11T04:32:01.337Z,8.50
2018-10-11T04:33:01.313Z,8.48
2018-10-11T04:34:01.281Z,8.58
2018-10-11T04:35:01.253Z,8.56
2018-10-11T04:36:01.267Z,8.56
2018-10-11T04:37:01.200Z,8.66
2018-10-11T04:38:01.171Z,8.66
2018-10-11T04:39:01.145Z,8.79
2018-10-11T04:40:01.117Z,8.79
2018-10-11T04:41:01.091Z,8.66
2018-10-11T04:42:01.061Z,8.62
2018-10-11T04:43:01.171Z,8.56
2018-10-11T04:44:01.008Z,8.61
2018-10-11T04:45:00.981Z,8.53
2018-10-11T04:46:00.952Z,8.44
2018-10-11T04:47:00.926Z,8.44
2018-10-11T04:48:00.898Z,8.45
2018-10-11T04:49:00.872Z,8.48
2018-10-11T04:50:00.842Z,8.43
2018-10-11T04:51:00.816Z,8.41
2018-10-11T04:52:00.789Z,8.36
2018-10-11T04:53:00.762Z,8.34
2018-10-11T04:54:00.737Z,8.34
2018-10-11T04:55:00.705Z,8.34
2018-10-11T04:56:00.679Z,8.36
2018-10-11T04:57:00.651Z,8.28
2018-10-11T04:58:00.622Z,8.19
2018-10-11T04:59:00.595Z,8.18
2018-10-11T05:00:00.572Z,8.10
2018-10-11T05:01:00.541Z,8.08
2018-10-11T05:02:00.512Z,8.11
2018-10-11T05:03:00.485Z,8.16
2018-10-11T05:04:00.460Z,8.28
2018-10-11T05:05:00.429Z,8.34
2018-10-11T05:06:00.402Z,8.38
2018-10-11T05:07:00.375Z,8.36
2018-10-11T05:08:00.346Z,8.29
2018-10-11T05:09:00.320Z,8.25
2018-10-11T05:10:00.291Z,8.12
2018-10-11T05:11:00.261Z,8.20
2018-10-11T05:12:00.237Z,8.11
2018-10-11T05:13:00.208Z,8.11
2018-10-11T05:14:00.180Z,8.08
2018-10-11T05:15:00.152Z,8.19
2018-10-11T05:16:00.124Z,8.07
2018-10-11T05:17:00.098Z,8.26
2018-10-11T05:18:00.070Z,8.20
2018-10-11T05:19:00.043Z,8.22
2018-10-11T05:20:00.015Z,8.22
2018-10-11T05:20:59.986Z,8.07
2018-10-11T05:21:59.957Z,8.11
2018-10-11T05:22:59.931Z,7.97
2018-10-11T05:23:59.902Z,8.00
2018-10-11T05:24:59.875Z,7.89
2018-10-11T05:25:59.891Z,7.90
2018-10-11T05:26:59.820Z,7.93
2018-10-11T05:27:59.791Z,8.10
2018-10-11T05:28:59.763Z,8.12
2018-10-11T05:29:59.737Z,8.18
2018-10-11T05:30:59.709Z,8.20
2018-10-11T05:31:59.680Z,8.15
2018-10-11T05:32:59.653Z,8.25
2018-10-11T05:33:59.624Z,8.20
2018-10-11T05:34:59.596Z,8.20
2018-10-11T05:35:59.567Z,8.26
2018-10-11T05:36:59.541Z,8.41
2018-10-11T05:37:59.524Z,8.61
2018-10-11T05:38:59.484Z,8.92
2018-10-11T05:39:59.456Z,9.01
2018-10-11T05:40:59.429Z,9.01
2018-10-11T05:41:59.402Z,8.96
2018-10-11T05:42:59.373Z,8.99
2018-10-11T05:43:59.343Z,8.96
2018-10-11T05:44:59.322Z,9.08
2018-10-11T05:45:59.288Z,9.18
2018-10-11T05:46:59.262Z,9.17
2018-10-11T05:47:59.234Z,9.35
2018-10-11T05:48:59.205Z,9.56
2018-10-11T05:49:59.177Z,9.57
2018-10-11T05:50:59.151Z,9.66
2018-10-11T05:51:59.123Z,9.75
2018-10-11T05:52:59.094Z,9.65
2018-10-11T05:53:59.067Z,9.71
2018-10-11T05:54:59.038Z,9.74
2018-10-11T05:55:59.013Z,9.93
2018-10-11T05:56:58.982Z,10.14
2018-10-11T05:57:58.955Z,10.18
2018-10-11T05:58:58.927Z,10.15
2018-10-11T05:59:58.900Z,10.25
2018-10-11T06:00:58.874Z,10.27
2018-10-11T06:01:58.845Z,10.36
2018-10-11T06:02:58.818Z,10.44
2018-10-11T06:03:58.795Z,10.52
2018-10-11T06:04:58.763Z,10.53
2018-10-11T06:05:58.735Z,10.59
2018-10-11T06:06:58.709Z,10.71
2018-10-11T06:07:58.681Z,10.78
2018-10-11T06:08:58.653Z,10.84
2018-10-11T06:09:58.627Z,10.91
2018-10-11T06:10:58.599Z,10.84
2018-10-11T06:11:58.612Z,10.85
2018-10-11T06:12:58.544Z,10.82
2018-10-11T06:13:58.518Z,10.88
2018-10-11T06:14:58.490Z,10.94
2018-10-11T06:15:58.466Z,10.96
2018-10-11T06:16:58.438Z,10.99
2018-10-11T06:17:58.415Z,11.03
2018-10-11T06:18:58.381Z,11.15
2018-10-11T06:19:58.357Z,11.07
2018-10-11T06:20:58.332Z,11.02
2018-10-11T06:21:58.302Z,11.14
2018-10-11T06:22:58.276Z,11.29
2018-10-11T06:23:58.255Z,11.46
2018-10-11T06:24:58.327Z,11.78
2018-10-11T06:25:58.195Z,12.09
2018-10-11T06:26:58.168Z,12.47
2018-10-11T06:27:58.142Z,12.64
2018-10-11T06:28:58.118Z,12.85
2018-10-11T06:29:58.089Z,12.90
2018-10-11T06:30:58.069Z,13.22
2018-10-11T06:31:58.039Z,13.33
2018-10-11T06:32:58.014Z,13.62
2018-10-11T06:33:57.987Z,13.60
2018-10-11T06:34:57.961Z,13.45
2018-10-11T06:35:57.998Z,13.12
2018-10-11T06:36:57.909Z,13.04
2018-10-11T06:37:57.884Z,12.87
2018-10-11T06:38:57.860Z,13.01
2018-10-11T06:39:57.835Z,12.92
2018-10-11T06:40:57.811Z,12.85
2018-10-11T06:41:57.907Z,12.95
2018-10-11T06:42:57.759Z,12.87
2018-10-11T06:43:57.734Z,12.87
2018-10-11T06:44:57.709Z,12.96
2018-10-11T06:45:57.683Z,12.90
2018-10-11T06:46:57.659Z,13.20
2018-10-11T06:47:57.634Z,13.55
2018-10-11T06:48:57.609Z,13.79
2018-10-11T06:49:57.723Z,13.88
2018-10-11T06:50:57.558Z,13.77
2018-10-11T06:51:57.534Z,13.66
2018-10-11T06:52:57.513Z,13.54
2018-10-11T06:53:57.482Z,13.41
2018-10-11T06:54:57.458Z,13.33
2018-10-11T06:55:57.498Z,13.46
2018-10-11T06:56:57.409Z,13.38
2018-10-11T06:57:57.385Z,13.32
2018-10-11T06:58:57.362Z,13.36
2018-10-11T06:59:57.335Z,13.36
2018-10-11T07:00:57.312Z,13.44
2018-10-11T07:01:57.376Z,13.49
2018-10-11T07:02:57.259Z,13.57
2018-10-11T07:03:57.235Z,13.54
2018-10-11T07:04:57.210Z,13.69
2018-10-11T07:05:57.185Z,13.77
2018-10-11T07:06:57.162Z,13.75
2018-10-11T07:07:57.136Z,13.95
2018-10-11T07:08:57.115Z,13.96
2018-10-11T07:09:57.085Z,14.02
2018-10-11T07:10:57.061Z,14.06
2018-10-11T07:11:57.036Z,14.24
2018-10-11T07:12:57.011Z,14.39
2018-10-11T07:13:57.006Z,14.42
2018-10-11T07:14:57.006Z,14.57
2018-10-11T07:15:56.937Z,14.60
2018-10-11T07:16:56.915Z,14.54
2018-10-11T07:17:56.885Z,14.62
2018-10-11T07:18:56.862Z,14.69
2018-10-11T07:19:56.837Z,14.68
2018-10-11T07:20:56.813Z,14.65
2018-10-11T07:21:56.793Z,14.70
2018-10-11T07:22:56.763Z,14.78
2018-10-11T07:23:56.740Z,14.86
2018-10-11T07:24:56.717Z,14.91
2018-10-11T07:25:56.767Z,15.03
2018-10-11T07:26:56.667Z,15.07
2018-10-11T07:27:56.645Z,15.10
2018-10-11T07:28:56.619Z,15.28
2018-10-11T07:29:56.594Z,15.51
2018-10-11T07:30:56.572Z,15.71
2018-10-11T07:31:56.545Z,16.34
2018-10-11T07:32:56.522Z,16.78
2018-10-11T07:33:56.498Z,16.91
2018-10-11T07:34:56.495Z,17.23
2018-10-11T07:35:56.451Z,17.31
2018-10-11T07:36:56.426Z,17.31
2018-10-11T07:37:56.403Z,17.52
2018-10-11T07:38:56.388Z,17.79
2018-10-11T07:39:56.357Z,17.66
2018-10-11T07:40:56.372Z,17.68
2018-10-11T07:41:56.313Z,17.87
2018-10-11T07:42:56.288Z,18.21
2018-10-11T07:43:56.264Z,18.63
2018-10-11T07:44:56.241Z,18.85
2018-10-11T07:45:56.218Z,19.19
2018-10-11T07:46:56.217Z,19.59
2018-10-11T07:47:56.176Z,19.51
2018-10-11T07:48:56.152Z,19.59
2018-10-11T07:49:56.129Z,19.80
2018-10-11T07:50:56.108Z,20.24
2018-10-11T07:51:56.087Z,20.42
2018-10-11T07:52:56.147Z,20.35
2018-10-11T07:53:56.044Z,20.31
2018-10-11T07:54:56.022Z,20.14
2018-10-11T07:55:56.001Z,19.94
2018-10-11T07:56:55.979Z,20.03
2018-10-11T07:57:55.957Z,20.31
2018-10-11T07:58:55.936Z,20.18
2018-10-11T07:59:55.916Z,20.36
2018-10-11T08:00:55.896Z,20.31
2018-10-11T08:01:55.876Z,20.02
2018-10-11T08:02:55.856Z,20.38
2018-10-11T08:03:55.832Z,20.92
2018-10-11T08:04:55.811Z,21.25
2018-10-11T08:05:55.818Z,20.97
2018-10-11T08:06:55.769Z,20.76
2018-10-11T08:07:55.755Z,20.92
2018-10-11T08:08:55.795Z,21.35
2018-10-11T08:09:55.708Z,21.82
2018-10-11T08:10:55.873Z,21.44
2018-10-11T08:11:55.941Z,21.27
2018-10-11T08:12:55.648Z,21.27
2018-10-11T08:13:55.631Z,21.37
2018-10-11T08:14:55.608Z,21.52
2018-10-11T08:15:55.630Z,21.54
2018-10-11T08:16:55.695Z,21.64
2018-10-11T08:17:55.917Z,21.80
2018-10-11T08:18:55.690Z,22.07
2018-10-11T08:19:55.579Z,22.51
2018-10-11T08:20:55.494Z,22.61
2018-10-11T08:21:55.469Z,22.05
2018-10-11T08:22:55.448Z,21.83
2018-10-11T08:23:55.428Z,21.34
2018-10-11T08:24:55.471Z,21.37
2018-10-11T08:25:55.837Z,21.65
2018-10-11T08:26:55.431Z,21.72
2018-10-11T08:27:55.350Z,22.21
2018-10-11T08:28:55.329Z,22.43
2018-10-11T08:29:55.310Z,22.94
2018-10-11T08:30:55.292Z,23.07
2018-10-11T08:31:55.271Z,22.35
2018-10-11T08:32:55.299Z,22.47
2018-10-11T08:33:55.232Z,22.57
2018-10-11T08:34:55.214Z,22.47
2018-10-11T08:35:55.195Z,22.35
2018-10-11T08:36:55.177Z,22.45
2018-10-11T08:37:55.348Z,22.39
2018-10-11T08:38:55.138Z,22.61
2018-10-11T08:39:55.119Z,23.00
2018-10-11T08:40:55.099Z,23.15
2018-10-11T08:41:55.078Z,23.23
2018-10-11T08:42:55.061Z,23.50
2018-10-11T08:43:55.103Z,23.13
2018-10-11T08:44:55.023Z,23.16
2018-10-11T08:45:55.007Z,22.82
2018-10-11T08:46:54.985Z,23.17
2018-10-11T08:47:54.966Z,23.20
2018-10-11T08:48:54.961Z,23.40
2018-10-11T08:49:54.928Z,23.51
2018-10-11T08:50:54.958Z,23.25
2018-10-11T08:51:54.891Z,22.97
2018-10-11T08:52:54.871Z,22.98
2018-10-11T08:53:54.853Z,23.43
2018-10-11T08:54:54.836Z,23.70
2018-10-11T08:55:54.889Z,23.69
2018-10-11T08:56:54.797Z,23.79
2018-10-11T08:57:54.777Z,23.72
2018-10-11T08:58:54.759Z,23.93
2018-10-11T08:59:54.742Z,24.18
2018-10-11T09:00:54.723Z,24.25
2018-10-11T09:01:54.704Z,24.55
2018-10-11T09:02:54.689Z,24.31
2018-10-11T09:03:54.813Z,23.76
2018-10-11T09:04:54.650Z,23.83
2018-10-11T09:05:54.631Z,23.78
2018-10-11T09:06:54.611Z,23.47
2018-10-11T09:07:54.593Z,23.68
2018-10-11T09:08:54.576Z,23.42
2018-10-11T09:09:54.558Z,23.35
2018-10-11T09:10:54.617Z,23.09
2018-10-11T09:11:54.534Z,23.27
2018-10-11T09:12:54.502Z,22.94
2018-10-11T09:13:54.484Z,23.35
2018-10-11T09:14:54.464Z,23.31
2018-10-11T09:15:54.447Z,23.69
2018-10-11T09:16:54.426Z,24.32
2018-10-11T09:17:54.408Z,24.68
2018-10-11T09:18:54.390Z,24.95
2018-10-11T09:19:54.373Z,24.46
2018-10-11T09:20:54.355Z,24.12
2018-10-11T09:21:54.336Z,23.93
2018-10-11T09:22:54.318Z,23.93
2018-10-11T09:23:54.301Z,24.24
2018-10-11T09:24:54.282Z,24.06
2018-10-11T09:25:54.262Z,24.18
2018-10-11T09:26:54.245Z,23.94
2018-10-11T09:27:54.226Z,23.78
2018-10-11T09:28:54.209Z,23.80
2018-10-11T09:29:54.189Z,24.08
2018-10-11T09:30:54.173Z,23.91
2018-10-11T09:31:54.155Z,24.25
2018-10-11T09:32:54.136Z,24.35
2018-10-11T09:33:54.118Z,24.46
2018-10-11T09:34:54.100Z,24.32
2018-10-11T09:35:54.082Z,24.52
2018-10-11T09:36:54.063Z,24.49
2018-10-11T09:37:54.045Z,24.60
2018-10-11T09:38:54.027Z,24.96
2018-10-11T09:39:54.013Z,24.99
2018-10-11T09:40:53.991Z,24.61
2018-10-11T09:41:53.973Z,24.85
2018-10-11T09:42:53.983Z,24.62
2018-10-11T09:43:53.936Z,24.68
2018-10-11T09:44:53.919Z,24.34
2018-10-11T09:45:53.903Z,24.47
2018-10-11T09:46:53.883Z,24.46
2018-10-11T09:47:53.865Z,24.47
2018-10-11T09:48:53.934Z,24.62
2018-10-11T09:49:53.829Z,24.27
2018-10-11T09:50:53.811Z,24.39
2018-10-11T09:51:53.797Z,24.47
2018-10-11T09:52:53.775Z,24.34
2018-10-11T09:53:53.756Z,24.67
2018-10-11T09:54:53.763Z,24.76
2018-10-11T09:55:53.721Z,24.87
2018-10-11T09:56:53.703Z,24.95
2018-10-11T09:57:53.683Z,24.95
2018-10-11T09:58:53.667Z,24.73
2018-10-11T09:59:53.649Z,25.20
2018-10-11T10:00:53.631Z,24.87
2018-10-11T10:01:53.623Z,24.85
2018-10-11T10:02:53.595Z,24.80
2018-10-11T10:03:53.577Z,24.83
2018-10-11T10:04:53.558Z,24.84
2018-10-11T10:05:53.541Z,25.00
2018-10-11T10:06:53.522Z,25.25
2018-10-11T10:07:53.504Z,25.57
2018-10-11T10:08:53.487Z,25.69
2018-10-11T10:09:53.510Z,25.25
2018-10-11T10:10:53.452Z,25.45
2018-10-11T10:11:53.436Z,25.72
2018-10-11T10:12:53.416Z,25.57
2018-10-11T10:13:53.396Z,26.12
2018-10-11T10:14:53.380Z,25.87
2018-10-11T10:15:53.362Z,25.09
2018-10-11T10:16:53.344Z,24.49
2018-10-11T10:17:53.324Z,24.90
2018-10-11T10:18:53.308Z,25.17
2018-10-11T10:19:53.293Z,25.18
2018-10-11T10:20:53.272Z,25.36
2018-10-11T10:21:53.255Z,25.73
2018-10-11T10:22:53.239Z,25.80
2018-10-11T10:23:53.220Z,25.28
2018-10-11T10:24:53.209Z,25.21
2018-10-11T10:25:53.183Z,25.43
2018-10-11T10:26:53.175Z,25.70
2018-10-11T10:27:53.146Z,25.60
2018-10-11T10:28:53.130Z,25.47
2018-10-11T10:29:53.111Z,25.24
2018-10-11T10:30:53.094Z,25.70
2018-10-11T10:31:53.076Z,26.01
2018-10-11T10:32:53.057Z,26.57
2018-10-11T10:33:53.049Z,26.52
2018-10-11T10:34:53.024Z,27.03
2018-10-11T10:35:53.004Z,27.09
2018-10-11T10:36:52.986Z,26.82
2018-10-11T10:37:52.967Z,27.24
2018-10-11T10:38:52.951Z,27.66
2018-10-11T10:39:53.004Z,27.81
2018-10-11T10:40:52.919Z,27.65
2018-10-11T10:41:52.901Z,27.44
2018-10-11T10:42:52.880Z,27.32
2018-10-11T10:43:52.868Z,27.06
2018-10-11T10:44:52.849Z,26.85
2018-10-11T10:45:52.830Z,26.48
2018-10-11T10:46:52.813Z,26.45
2018-10-11T10:47:52.796Z,26.45
2018-10-11T10:48:52.844Z,26.82
2018-10-11T10:49:52.761Z,26.72
2018-10-11T10:50:52.743Z,27.09
2018-10-11T10:51:52.726Z,26.92
2018-10-11T10:52:52.711Z,27.10
2018-10-11T10:53:52.692Z,26.95
2018-10-11T10:54:52.674Z,26.63
2018-10-11T10:55:52.657Z,26.97
2018-10-11T10:56:52.639Z,27.02
2018-10-11T10:57:52.622Z,26.85
2018-10-11T10:58:52.610Z,25.98
2018-10-11T10:59:52.593Z,25.82
2018-10-11T11:00:52.572Z,25.69
2018-10-11T11:01:52.557Z,26.20
2018-10-11T11:02:52.535Z,26.35
2018-10-11T11:03:52.517Z,26.23
2018-10-11T11:04:52.501Z,26.54
2018-10-11T11:05:52.483Z,26.40
2018-10-11T11:06:52.466Z,26.30
2018-10-11T11:07:52.447Z,26.58
2018-10-11T11:08:52.431Z,26.70
2018-10-11T11:09:52.413Z,26.36
2018-10-11T11:10:52.393Z,26.45
2018-10-11T11:11:52.381Z,26.43
2018-10-11T11:12:52.358Z,26.35
2018-10-11T11:13:52.341Z,26.44
2018-10-11T11:14:52.324Z,26.67
2018-10-11T11:15:52.306Z,26.77
2018-10-11T11:16:52.287Z,27.06
2018-10-11T11:17:52.268Z,27.51
2018-10-11T11:18:52.275Z,27.43
2018-10-11T11:19:52.233Z,27.51
2018-10-11T11:20:52.217Z,28.04
2018-10-11T11:21:52.199Z,28.17
2018-10-11T11:22:52.180Z,27.79
2018-10-11T11:23:52.163Z,27.17
2018-10-11T11:24:52.150Z,27.17
2018-10-11T11:25:52.127Z,27.32
2018-10-11T11:26:52.109Z,27.25
2018-10-11T11:27:52.093Z,27.32
2018-10-11T11:28:52.075Z,27.22
2018-10-11T11:29:52.056Z,27.69
2018-10-11T11:30:52.041Z,27.78
2018-10-11T11:31:52.022Z,27.36
2018-10-11T11:32:52.054Z,27.02
2018-10-11T11:33:51.987Z,27.04
2018-10-11T11:34:51.968Z,26.99
2018-10-11T11:35:51.950Z,27.57
2018-10-11T11:36:51.933Z,27.32
2018-10-11T11:37:51.914Z,27.31
2018-10-11T11:38:51.898Z,27.18
2018-10-11T11:39:51.932Z,27.57
2018-10-11T11:40:51.862Z,27.12
2018-10-11T11:41:51.845Z,27.36
2018-10-11T11:42:51.828Z,27.50
2018-10-11T11:43:51.809Z,27.41
2018-10-11T11:44:51.792Z,28.09
2018-10-11T11:45:51.787Z,27.96
2018-10-11T11:46:51.756Z,28.29
2018-10-11T11:47:51.738Z,28.85
2018-10-11T11:48:51.720Z,29.23
2018-10-11T11:49:51.703Z,29.09
2018-10-11T11:50:51.684Z,29.28
2018-10-11T11:51:51.666Z,29.37
2018-10-11T11:52:51.652Z,29.76
2018-10-11T11:53:51.633Z,29.36
2018-10-11T11:54:51.616Z,29.37
2018-10-11T11:55:51.598Z,29.24
2018-10-11T11:56:51.580Z,28.96
2018-10-11T11:57:51.596Z,29.30
2018-10-11T11:58:51.545Z,28.48
2018-10-11T11:59:51.528Z,28.06
2018-10-11T12:00:51.515Z,28.07
2018-10-11T12:01:51.494Z,28.54
2018-10-11T12:02:51.560Z,28.36
2018-10-11T12:03:51.462Z,27.46
2018-10-11T12:04:51.442Z,27.60
2018-10-11T12:05:51.426Z,28.19
2018-10-11T12:06:51.408Z,27.99
2018-10-11T12:07:51.391Z,27.94
2018-10-11T12:08:51.374Z,27.96
2018-10-11T12:09:51.357Z,28.03
2018-10-11T12:10:51.401Z,28.36
2018-10-11T12:11:51.324Z,28.44
2018-10-11T12:12:51.304Z,28.48
2018-10-11T12:13:51.285Z,28.68
2018-10-11T12:14:51.270Z,28.85
2018-10-11T12:15:51.254Z,28.04
2018-10-11T12:16:51.236Z,28.06
2018-10-11T12:17:51.218Z,28.21
2018-10-11T12:18:51.206Z,28.12
2018-10-11T12:19:51.183Z,27.93
2018-10-11T12:20:51.167Z,27.92
2018-10-11T12:21:51.152Z,28.33
2018-10-11T12:22:51.132Z,28.14
2018-10-11T12:23:51.112Z,28.30
2018-10-11T12:24:51.173Z,28.14
2018-10-11T12:25:51.079Z,28.00
2018-10-11T12:26:51.062Z,27.81
2018-10-11T12:27:51.044Z,28.06
2018-10-11T12:28:51.034Z,27.97
2018-10-11T12:29:51.011Z,28.03
2018-10-11T12:30:50.990Z,28.25
2018-10-11T12:31:50.974Z,28.62
2018-10-11T12:32:50.957Z,28.44
2018-10-11T12:33:50.942Z,28.48
2018-10-11T12:34:50.921Z,28.18
2018-10-11T12:35:50.903Z,28.39
2018-10-11T12:36:50.885Z,28.24
2018-10-11T12:37:50.940Z,27.94
2018-10-11T12:38:51.004Z,28.19
2018-10-11T12:39:50.831Z,28.04
2018-10-11T12:40:50.816Z,28.36
2018-10-11T12:41:50.798Z,28.31
2018-10-11T12:42:50.779Z,28.95
2018-10-11T12:43:50.762Z,29.04
2018-10-11T12:44:50.745Z,28.76
2018-10-11T12:45:50.727Z,28.59
2018-10-11T12:46:50.714Z,28.52
2018-10-11T12:47:50.693Z,28.92
2018-10-11T12:48:50.675Z,28.64
2018-10-11T12:49:50.714Z,28.40
2018-10-11T12:50:50.640Z,28.56
2018-10-11T12:51:50.727Z,28.66
2018-10-11T12:52:50.611Z,28.37
2018-10-11T12:53:50.588Z,28.34
2018-10-11T12:54:50.588Z,28.80
2018-10-11T12:55:50.555Z,29.06
2018-10-11T12:56:50.596Z,28.90